Time;durP1;ratioP1;P1;durP2;ratioP2;P2;SDS_P1;SDS_P2;PMS_P1;PMS_P2;Temp;Humidity;BMP_temperature;BMP_pressure;BME280_temperature;BME280_humidity;BME280_pressure;Samples;Min_cycle;Max_cycle;Signal;HPM_P1;HPM_P2
2023/10/14 00:00:58;;;;;;;8.30;3.33;;;;;;;19.85;90.38;97389.56;6108480;19;20010;-75
2023/10/14 00:03:06;;;;;;;6.00;3.70;;;;;;;19.82;90.30;97403.75;6107395;19;20016;-75
2023/10/14 00:05:07;;;;;;;8.13;4.00;;;;;;;19.83;91.16;97392.06;6109015;19;20070;-75
2023/10/14 00:07:09;;;;;;;10.33;4.10;;;;;;;19.84;92.22;97370.38;6109176;19;20451;-75
2023/10/14 00:09:13;;;;;;;6.88;3.90;;;;;;;19.85;96.06;97391.59;6106998;19;20006;-75
2023/10/14 00:11:17;;;;;;;7.68;4.20;;;;;;;19.80;94.81;97387.41;6107431;19;20028;-75
2023/10/14 00:13:17;;;;;;;10.23;3.88;;;;;;;19.67;96.80;97355.09;6107068;19;20471;-75
2023/10/14 00:15:17;;;;;;;7.32;4.30;;;;;;;19.55;100.00;97362.38;6108025;19;20029;-75
2023/10/14 00:17:18;;;;;;;8.45;4.30;;;;;;;19.43;100.00;97343.66;6108391;19;20404;-75
2023/10/14 00:19:20;;;;;;;11.45;4.50;;;;;;;19.34;100.00;97336.00;6108677;19;20010;-75
2023/10/14 00:21:20;;;;;;;6.80;4.38;;;;;;;19.20;100.00;97325.41;6107933;19;20034;-75
2023/10/14 00:23:23;;;;;;;6.65;4.47;;;;;;;19.04;100.00;97332.81;6107536;19;20122;-75
2023/10/14 00:25:24;;;;;;;9.98;4.82;;;;;;;19.01;100.00;97336.53;6108002;19;20114;-75
2023/10/14 00:27:24;;;;;;;8.90;4.43;;;;;;;18.96;100.00;97323.16;6107440;19;20010;-75
2023/10/14 00:29:29;;;;;;;7.10;4.32;;;;;;;18.95;100.00;97317.97;6107826;19;20014;-75
2023/10/14 00:31:29;;;;;;;8.13;4.63;;;;;;;18.92;100.00;97308.47;6107133;19;20010;-75
2023/10/14 00:33:29;;;;;;;10.43;4.38;;;;;;;18.87;100.00;97297.91;6106744;19;20335;-75
2023/10/14 00:35:30;;;;;;;8.05;4.78;;;;;;;18.83;100.00;97294.44;6107439;19;20047;-75
2023/10/14 00:37:32;;;;;;;8.10;4.50;;;;;;;18.81;100.00;97302.53;6107141;19;20006;-75
2023/10/14 00:39:33;;;;;;;8.05;4.20;;;;;;;18.76;100.00;97289.91;6107878;19;20220;-75
2023/10/14 00:41:36;;;;;;;6.50;4.25;;;;;;;18.77;100.00;97287.88;6107712;19;20003;-75
2023/10/14 00:43:37;;;;;;;8.43;4.30;;;;;;;18.75;100.00;97277.13;6106487;19;20010;-75
2023/10/14 00:45:43;;;;;;;9.65;4.47;;;;;;;18.76;100.00;97261.88;6107233;19;20052;-75
2023/10/14 00:47:44;;;;;;;8.73;4.57;;;;;;;18.71;100.00;97264.53;6107815;19;20014;-75
2023/10/14 00:49:45;;;;;;;9.15;4.60;;;;;;;18.66;100.00;97265.91;6108268;19;20034;-75
2023/10/14 00:51:51;;;;;;;5.63;4.30;;;;;;;18.62;100.00;97265.25;6106475;19;20113;-75
2023/10/14 00:54:27;;;;;;;6.80;4.40;;;;;;;18.60;100.00;97252.91;6107858;19;20463;-75
2023/10/14 00:56:20;;;;;;;8.07;4.45;;;;;;;18.59;100.00;97240.16;6004563;19;2005837;-75
2023/10/14 00:58:27;;;;;;;8.15;4.63;;;;;;;18.60;100.00;97244.53;6106148;19;20775;-75
2023/10/14 01:00:37;;;;;;;10.48;4.43;;;;;;;18.57;100.00;97237.06;6106982;19;20031;-75
2023/10/14 01:02:38;;;;;;;9.00;4.55;;;;;;;18.60;100.00;97239.69;6105595;19;20023;-75
2023/10/14 01:04:40;;;;;;;9.73;4.65;;;;;;;18.66;100.00;97245.50;6106698;19;20463;-75
2023/10/14 01:09:02;;;;;;;12.45;4.32;;;;;;;18.75;100.00;97225.94;6107050;19;20007;-75
2023/10/14 01:11:10;;;;;;;8.98;5.20;;;;;;;18.80;100.00;97230.94;6107068;19;20021;-75
2023/10/14 01:13:22;;;;;;;13.32;5.18;;;;;;;18.93;100.00;97223.16;6103752;19;20003;-75
2023/10/14 01:15:23;;;;;;;9.63;4.30;;;;;;;19.06;100.00;97221.00;6107770;19;20016;-75
2023/10/14 01:17:31;;;;;;;8.35;4.50;;;;;;;19.06;100.00;97212.59;6107285;19;20490;-75
2023/10/14 01:19:32;;;;;;;8.98;4.50;;;;;;;19.11;100.00;97214.00;6107169;19;20007;-75
2023/10/14 01:21:38;;;;;;;13.23;4.82;;;;;;;19.09;100.00;97210.88;6106297;19;20014;-75
2023/10/14 01:23:39;;;;;;;6.38;4.18;;;;;;;19.11;100.00;97202.00;6108442;19;20011;-75
2023/10/14 01:26:04;;;;;;;7.78;4.07;;;;;;;19.12;100.00;97203.59;6112901;19;20323;-75
2023/10/14 01:28:11;;;;;;;9.30;4.57;;;;;;;19.13;100.00;97200.31;6109909;19;20471;-75
2023/10/14 01:30:20;;;;;;;9.45;4.25;;;;;;;19.12;100.00;97195.19;6112273;19;20014;-75
2023/10/14 01:34:44;;;;;;;8.98;4.70;;;;;;;19.15;100.00;97174.59;6113008;19;20006;-75
2023/10/14 01:36:46;;;;;;;9.13;4.32;;;;;;;19.18;100.00;97193.28;6111641;19;20018;-75
2023/10/14 01:38:51;;;;;;;9.15;4.20;;;;;;;19.11;100.00;97180.34;6112190;19;20011;-75
2023/10/14 01:40:54;;;;;;;7.55;4.22;;;;;;;19.11;100.00;97179.56;6113411;19;20014;-75
2023/10/14 01:42:56;;;;;;;7.78;4.13;;;;;;;19.09;100.00;97182.84;6112065;19;20392;-75
2023/10/14 01:44:58;;;;;;;12.32;4.43;;;;;;;19.02;100.00;97177.53;6112741;19;20107;-75
2023/10/14 01:47:01;;;;;;;11.65;5.50;;;;;;;19.01;100.00;97185.19;6112303;19;20017;-75
2023/10/14 01:49:10;;;;;;;6.25;4.13;;;;;;;19.04;100.00;97183.50;6112470;19;20013;-75
2023/10/14 01:51:11;;;;;;;7.75;3.90;;;;;;;18.99;100.00;97178.50;6112300;19;20005;-75
2023/10/14 01:53:21;;;;;;;6.82;3.92;;;;;;;19.02;100.00;97175.53;6110098;19;19995;-75
2023/10/14 01:55:21;;;;;;;9.48;4.20;;;;;;;18.99;100.00;97168.06;6111894;19;20010;-75
2023/10/14 01:57:24;;;;;;;8.02;3.88;;;;;;;19.04;100.00;97173.06;6111214;19;19999;-75
2023/10/14 01:59:27;;;;;;;8.65;4.45;;;;;;;19.11;100.00;97165.56;6111876;19;20782;-76
2023/10/14 02:01:30;;;;;;;7.78;4.25;;;;;;;19.09;100.00;97154.81;6111031;19;20091;-75
2023/10/14 02:03:33;;;;;;;9.07;4.15;;;;;;;19.09;100.00;97161.19;6110568;19;20015;-75
2023/10/14 02:05:40;;;;;;;4.95;3.67;;;;;;;19.13;100.00;97165.91;6111462;19;20026;-75
2023/10/14 02:07:41;;;;;;;10.23;4.18;;;;;;;19.08;100.00;97165.25;6110487;19;20073;-75
2023/10/14 02:09:41;;;;;;;10.80;4.85;;;;;;;19.17;100.00;97169.31;6112735;19;20326;-75
2023/10/14 02:11:41;;;;;;;11.10;3.90;;;;;;;19.25;99.71;97151.69;6107232;19;20009;-75
2023/10/14 02:13:42;;;;;;;6.00;3.70;;;;;;;19.34;99.25;97157.31;6110967;19;20006;-75
2023/10/14 02:15:46;;;;;;;7.07;4.03;;;;;;;19.38;99.08;97168.38;6111146;19;20054;-75
2023/10/14 02:17:47;;;;;;;8.18;3.95;;;;;;;19.48;98.23;97149.50;6111860;19;20010;-75
2023/10/14 02:19:50;;;;;;;7.20;4.05;;;;;;;19.42;98.17;97146.53;6110988;19;20015;-75
2023/10/14 02:22:03;;;;;;;9.10;4.28;;;;;;;19.45;97.66;97144.84;6109459;19;20007;-75
2023/10/14 02:24:09;;;;;;;9.70;4.28;;;;;;;19.40;97.72;97146.25;6111053;19;20371;-74
2023/10/14 02:26:33;;;;;;;8.02;3.72;;;;;;;19.36;98.00;97137.19;6110797;19;20014;-75
2023/10/14 02:28:45;;;;;;;5.93;3.50;;;;;;;19.43;97.42;97134.06;6109752;19;20014;-75
2023/10/14 02:30:51;;;;;;;10.00;4.10;;;;;;;19.33;98.11;97124.91;6111427;19;20040;-75
2023/10/14 02:32:51;;;;;;;12.23;3.92;;;;;;;19.31;97.76;97135.81;6111190;19;20409;-74
2023/10/14 02:34:52;;;;;;;8.15;3.92;;;;;;;19.24;98.42;97129.75;6111936;19;20010;-75
2023/10/14 02:36:52;;;;;;;7.28;3.88;;;;;;;19.22;97.84;97140.66;6111754;19;20010;-75
2023/10/14 02:38:53;;;;;;;14.73;4.10;;;;;;;19.23;97.49;97143.00;6110968;19;20049;-75
2023/10/14 02:40:53;;;;;;;6.97;4.07;;;;;;;19.29;97.85;97141.13;6110078;19;20014;-74
2023/10/14 02:42:57;;;;;;;8.68;4.30;;;;;;;19.32;98.07;97145.00;6110762;19;20485;-75
2023/10/14 02:44:59;;;;;;;11.05;4.25;;;;;;;19.29;97.93;97148.75;6111380;19;20511;-75
2023/10/14 02:47:08;;;;;;;8.52;3.78;;;;;;;19.26;98.37;97144.06;6111610;19;20106;-75
2023/10/14 02:49:14;;;;;;;11.60;4.13;;;;;;;19.16;98.23;97142.53;6101271;19;20009;-75
2023/10/14 02:51:16;;;;;;;6.93;3.72;;;;;;;19.15;99.30;97138.94;6110066;19;20003;-75
2023/10/14 02:53:23;;;;;;;9.50;4.05;;;;;;;19.19;98.92;97136.75;6109569;19;20003;-75
2023/10/14 02:55:25;;;;;;;8.07;4.07;;;;;;;19.18;99.24;97129.59;6109936;19;20074;-75
2023/10/14 02:57:26;;;;;;;10.00;4.15;;;;;;;19.16;99.44;97142.53;6110319;19;20014;-75
2023/10/14 02:59:43;;;;;;;8.38;4.18;;;;;;;19.19;99.71;97130.34;6109442;19;20014;-75
2023/10/14 03:01:44;;;;;;;9.45;3.97;;;;;;;19.25;99.03;97131.31;6108839;19;20010;-75
2023/10/14 03:03:46;;;;;;;7.57;3.95;;;;;;;19.30;98.91;97116.66;6110514;19;20002;-74
2023/10/14 03:05:52;;;;;;;8.65;4.13;;;;;;;19.34;98.82;97129.25;6108701;19;20074;-75
2023/10/14 03:07:52;;;;;;;8.73;4.65;;;;;;;19.36;98.87;97123.19;6110206;19;20018;-75
2023/10/14 03:12:19;;;;;;;10.93;4.00;;;;;;;19.38;99.33;97114.31;6004141;19;2006004;-74
2023/10/14 03:14:19;;;;;;;9.70;4.32;;;;;;;19.31;99.82;97110.59;6110103;19;20001;-75
2023/10/14 03:16:19;;;;;;;8.90;4.60;;;;;;;19.27;100.00;97109.16;6109389;19;20026;-75
2023/10/14 03:18:20;;;;;;;6.78;3.75;;;;;;;19.24;100.00;97102.47;6110227;19;20050;-75
2023/10/14 03:22:31;;;;;;;8.15;3.85;;;;;;;19.27;100.00;97097.94;6107761;19;20349;-74
2023/10/14 03:24:38;;;;;;;8.57;3.60;;;;;;;19.25;100.00;97103.25;6109216;19;20387;-74
2023/10/14 03:26:38;;;;;;;9.95;3.95;;;;;;;19.24;100.00;97102.47;6109556;19;20491;-75
2023/10/14 03:28:41;;;;;;;8.80;4.70;;;;;;;19.26;100.00;97096.41;6107330;19;20010;-74
2023/10/14 03:30:45;;;;;;;10.35;5.28;;;;;;;19.34;99.70;97083.63;6109185;19;20385;-75
2023/10/14 03:32:45;;;;;;;9.40;4.10;;;;;;;19.33;100.00;97096.09;6108385;19;20010;-75
2023/10/14 03:34:47;;;;;;;8.77;4.35;;;;;;;19.33;99.95;97090.47;6109088;19;20025;-74
2023/10/14 03:36:50;;;;;;;12.30;4.93;;;;;;;19.43;99.57;97096.84;6109418;19;20022;-75
2023/10/14 03:38:57;;;;;;;13.63;5.60;;;;;;;19.57;98.77;97097.00;6108484;19;20011;-75
2023/10/14 03:41:04;;;;;;;8.63;4.53;;;;;;;19.53;99.55;97093.56;6110184;19;20041;-75
2023/10/14 03:43:09;;;;;;;10.90;5.53;;;;;;;19.68;98.74;97095.72;6108972;19;20017;-75
2023/10/14 03:45:20;;;;;;;11.25;4.78;;;;;;;19.66;99.01;97098.22;6110055;19;20011;-75
2023/10/14 03:47:21;;;;;;;11.98;5.25;;;;;;;19.60;99.82;97084.81;6107995;19;20006;-74
2023/10/14 03:49:22;;;;;;;12.90;4.63;;;;;;;19.70;99.05;97101.66;6105314;19;20325;-75
2023/10/14 03:51:24;;;;;;;11.82;5.30;;;;;;;19.72;99.67;97102.72;6101495;19;20003;-75
2023/10/14 03:53:24;;;;;;;;;;;;;;;19.65;100.00;97094.63;6100765;19;20006;-75
2023/10/14 03:55:26;;;;;;;9.52;4.95;;;;;;;19.73;99.98;97103.50;6101280;19;19939;-75
2023/10/14 03:57:37;;;;;;;13.15;5.70;;;;;;;19.71;99.76;97092.75;6101538;19;20470;-74
2023/10/14 03:59:37;;;;;;;13.50;5.95;;;;;;;19.73;100.00;97103.50;6101793;19;20370;-74
2023/10/14 04:03:43;;;;;;;10.85;5.53;;;;;;;19.49;100.00;97090.13;6101803;19;20090;-75
2023/10/14 04:05:52;;;;;;;10.68;5.50;;;;;;;19.50;100.00;97088.88;6100998;19;20006;-75
2023/10/14 04:07:54;;;;;;;12.10;5.47;;;;;;;19.42;100.00;97084.84;6100609;19;20359;-75
2023/10/14 04:09:58;;;;;;;9.50;5.80;;;;;;;19.40;100.00;97090.16;6101277;19;20026;-74
2023/10/14 04:12:00;;;;;;;13.85;5.22;;;;;;;19.38;100.00;97080.66;6100319;19;20779;-75
2023/10/14 04:14:02;;;;;;;14.00;5.28;;;;;;;19.33;100.00;97094.06;6102379;19;20014;-75
2023/10/14 04:16:04;;;;;;;7.68;5.10;;;;;;;19.29;100.00;97101.09;6100722;19;19999;-75
2023/10/14 04:18:12;;;;;;;10.32;5.13;;;;;;;19.19;100.00;97102.31;6101234;19;19998;-74
2023/10/14 04:24:45;;;;;;;14.03;5.23;;;;;;;19.00;100.00;97099.53;6101639;19;20275;-75
2023/10/14 04:26:48;;;;;;;9.73;5.20;;;;;;;18.91;100.00;97112.78;6101038;19;20869;-75
2023/10/14 04:28:58;;;;;;;9.48;5.03;;;;;;;18.76;100.00;97127.41;6101141;19;20234;-74
2023/10/14 04:31:06;;;;;;;17.95;6.03;;;;;;;18.74;100.00;97101.09;6101581;19;20066;-74
2023/10/14 04:35:22;;;;;;;10.60;5.57;;;;;;;18.72;100.00;97112.78;6101348;19;20312;-75
2023/10/14 04:37:27;;;;;;;10.70;4.72;;;;;;;18.71;100.00;97122.44;6101314;19;20018;-74
2023/10/14 04:39:31;;;;;;;7.53;4.35;;;;;;;18.65;100.00;97118.69;6100452;19;20014;-74
2023/10/14 04:41:31;;;;;;;8.75;4.18;;;;;;;18.64;100.00;97108.69;6099271;19;20011;-74
2023/10/14 04:45:32;;;;;;;13.95;5.72;;;;;;;18.49;100.00;97130.91;6100322;19;20430;-74
2023/10/14 04:47:35;;;;;;;12.63;5.25;;;;;;;18.48;100.00;97123.75;6100171;19;20036;-75
2023/10/14 04:49:37;;;;;;;8.05;4.65;;;;;;;18.44;100.00;97116.72;6103768;19;20034;-75
2023/10/14 04:51:45;;;;;;;12.60;5.13;;;;;;;18.39;100.00;97117.34;6106927;19;20074;-74
2023/10/14 04:53:46;;;;;;;9.27;4.88;;;;;;;18.39;100.00;97120.16;6107415;19;20007;-74
2023/10/14 04:55:46;;;;;;;27.45;5.90;;;;;;;18.35;100.00;97130.72;6106850;19;20026;-75
2023/10/14 05:00:31;;;;;;;11.98;6.50;;;;;;;18.34;100.00;97124.34;6005650;19;2006016;-75
2023/10/14 05:02:37;;;;;;;7.95;4.35;;;;;;;18.43;100.00;97143.94;6111259;19;20018;-74
2023/10/14 05:04:41;;;;;;;13.00;5.82;;;;;;;18.46;100.00;97154.25;6111516;19;20768;-74
2023/10/14 05:06:41;;;;;;;9.85;4.72;;;;;;;18.48;100.00;97160.16;6113426;19;20018;-74
2023/10/14 05:08:44;;;;;;;8.93;4.53;;;;;;;18.45;100.00;97172.28;6112068;19;20757;-75
2023/10/14 05:10:47;;;;;;;7.38;4.45;;;;;;;18.38;100.00;97169.78;6112378;19;20383;-75
2023/10/14 05:12:51;;;;;;;8.90;5.13;;;;;;;18.23;100.00;97180.75;6111804;19;20011;-74
2023/10/14 05:14:53;;;;;;;6.63;4.22;;;;;;;18.16;100.00;97171.88;6112117;19;20006;-74
2023/10/14 05:16:57;;;;;;;9.60;4.07;;;;;;;18.09;100.00;97175.72;6112386;19;20028;-75
2023/10/14 05:19:07;;;;;;;7.55;4.22;;;;;;;17.95;100.00;97170.66;6112501;19;20343;-74
2023/10/14 05:21:20;;;;;;;10.55;4.38;;;;;;;17.81;100.00;97174.81;6113167;19;20052;-74
2023/10/14 05:23:24;;;;;;;8.13;4.30;;;;;;;17.65;100.00;97172.19;6112055;19;20003;-75
2023/10/14 05:25:27;;;;;;;8.23;4.65;;;;;;;17.61;100.00;97180.72;6112492;19;20331;-74
2023/10/14 05:27:45;;;;;;;9.13;4.80;;;;;;;17.49;100.00;97186.38;6113296;19;20396;-74
2023/10/14 05:29:55;;;;;;;8.07;4.45;;;;;;;17.35;100.00;97185.66;6112601;19;20006;-74
2023/10/14 05:32:15;;;;;;;9.68;4.63;;;;;;;17.23;100.00;97186.50;6109093;19;20572;-75
2023/10/14 05:34:17;;;;;;;10.10;4.32;;;;;;;17.07;100.00;97197.88;6008295;19;2006000;-74
2023/10/14 05:36:17;;;;;;;;;;;;;;;16.99;100.00;97210.50;6113298;19;20352;-74
2023/10/14 05:38:19;;;;;;;8.90;4.73;;;;;;;16.93;100.00;97206.72;6111977;19;19907;-75
2023/10/14 05:40:21;;;;;;;9.95;4.45;;;;;;;16.89;100.00;97200.50;6112800;19;20642;-75
2023/10/14 05:42:21;;;;;;;13.10;4.45;;;;;;;16.81;100.00;97206.31;6111002;19;20053;-75
2023/10/14 05:44:22;;;;;;;9.32;3.95;;;;;;;16.78;100.00;97210.00;6111347;19;20007;-74
2023/10/14 05:46:23;;;;;;;5.97;3.58;;;;;;;16.79;100.00;97199.59;6111301;19;20003;-74
2023/10/14 05:48:30;;;;;;;9.73;3.85;;;;;;;16.73;100.00;97193.03;6111986;19;20376;-74
2023/10/14 05:50:31;;;;;;;10.38;3.40;;;;;;;16.70;100.00;97203.06;6111632;19;20014;-74
2023/10/14 05:52:32;;;;;;;6.30;3.22;;;;;;;16.74;100.00;97209.34;6110938;19;20070;-74
2023/10/14 05:54:34;;;;;;;5.88;3.20;;;;;;;16.77;100.00;97214.00;6111426;19;20014;-74
2023/10/14 05:56:34;;;;;;;8.63;3.65;;;;;;;16.77;100.00;97219.59;6112731;19;20010;-74
2023/10/14 05:58:38;;;;;;;7.10;3.15;;;;;;;16.76;100.00;97220.84;6110671;19;20042;-74
2023/10/14 06:00:41;;;;;;;6.60;3.30;;;;;;;16.81;100.00;97228.66;6109797;19;20010;-75
2023/10/14 06:02:43;;;;;;;;;;;;;;;16.81;100.00;97219.50;6110317;19;20368;-74
2023/10/14 06:04:45;;;;;;;11.77;3.30;;;;;;;16.81;100.00;97236.25;6111552;19;19915;-74
2023/10/14 06:06:46;;;;;;;7.03;3.03;;;;;;;16.77;100.00;97236.38;6112321;19;20390;-74
2023/10/14 06:08:49;;;;;;;9.02;3.28;;;;;;;16.75;100.00;97244.41;6110581;19;20003;-74
2023/10/14 06:10:49;;;;;;;;;;;;;;;16.76;100.00;97243.19;6110774;19;20011;-75
2023/10/14 06:12:52;;;;;;;7.80;3.30;;;;;;;16.76;100.00;97248.00;6110115;19;20208;-75
2023/10/14 06:14:53;;;;;;;6.85;3.65;;;;;;;16.71;100.00;97254.91;6110840;19;20011;-74
2023/10/14 06:16:53;;;;;;;7.28;3.50;;;;;;;16.69;100.00;97281.72;6111801;19;20014;-74
2023/10/14 06:18:53;;;;;;;6.82;3.20;;;;;;;16.65;100.00;97287.41;6109850;19;19999;-74
2023/10/14 06:20:54;;;;;;;8.10;3.33;;;;;;;16.64;100.00;97299.81;6110262;19;20583;-74
2023/10/14 06:22:59;;;;;;;5.97;3.08;;;;;;;16.64;100.00;97321.38;6110013;19;20045;-74
2023/10/14 06:25:00;;;;;;;5.40;2.80;;;;;;;16.64;100.00;97425.47;6110594;19;20074;-74
2023/10/14 06:27:08;;;;;;;6.07;1.30;;;;;;;16.33;100.00;97429.97;6111217;19;20010;-76
2023/10/14 06:29:09;;;;;;;2.10;0.98;;;;;;;14.71;100.00;97446.25;6109882;19;20014;-75
2023/10/14 06:31:11;;;;;;;2.72;1.55;;;;;;;13.97;100.00;97443.72;6109270;19;20021;-74
2023/10/14 06:33:12;;;;;;;4.80;1.40;;;;;;;13.68;100.00;97459.34;6107564;19;20011;-74
2023/10/14 06:35:14;;;;;;;2.60;0.60;;;;;;;13.39;100.00;97478.47;6110522;19;20478;-74
2023/10/14 06:37:15;;;;;;;;;;;;;;;13.14;100.00;97481.59;6111773;19;20017;-74
2023/10/14 06:39:24;;;;;;;2.97;0.63;;;;;;;12.93;100.00;97491.03;6110229;19;20411;-74
2023/10/14 06:41:27;;;;;;;3.10;1.60;;;;;;;12.73;100.00;97490.09;6110080;19;20002;-74
2023/10/14 06:43:28;;;;;;;0.73;0.60;;;;;;;12.69;100.00;97523.47;6109124;19;20562;-74
2023/10/14 06:45:31;;;;;;;2.38;0.60;;;;;;;12.61;100.00;97522.75;6110232;19;20006;-75
2023/10/14 06:47:32;;;;;;;0.95;0.73;;;;;;;12.56;100.00;97531.53;6110066;19;20021;-74
2023/10/14 06:49:36;;;;;;;0.65;0.40;;;;;;;12.56;100.00;97539.06;6110385;19;19999;-74
2023/10/14 06:51:37;;;;;;;0.95;0.80;;;;;;;12.56;100.00;97533.50;6110356;19;20035;-74
2023/10/14 06:53:39;;;;;;;0.93;0.60;;;;;;;12.59;100.00;97547.34;6108890;19;20006;-75
2023/10/14 06:55:39;;;;;;;1.42;0.75;;;;;;;12.61;100.00;97549.72;6110074;19;20018;-74
2023/10/14 06:57:42;;;;;;;0.68;0.60;;;;;;;12.68;100.00;97562.72;6109379;19;20066;-74
2023/10/14 06:59:42;;;;;;;0.52;0.52;;;;;;;12.70;100.00;97577.75;6110141;19;20006;-75
2023/10/14 07:01:43;;;;;;;1.85;0.70;;;;;;;12.70;100.00;97586.09;6107187;19;20271;-74
2023/10/14 07:03:43;;;;;;;0.43;0.43;;;;;;;12.71;100.00;97597.97;6109050;19;20440;-74
2023/10/14 07:05:56;;;;;;;0.40;0.40;;;;;;;12.71;100.00;97597.97;6108653;19;20071;-74
2023/10/14 07:07:57;;;;;;;0.57;0.45;;;;;;;12.75;100.00;97616.16;6109708;19;20015;-75
2023/10/14 07:09:59;;;;;;;0.40;0.40;;;;;;;12.81;100.00;97620.03;6108732;19;20609;-74
2023/10/14 07:11:59;;;;;;;0.68;0.38;;;;;;;12.85;100.00;97634.69;6107499;19;20258;-75
2023/10/14 07:14:00;;;;;;;0.40;0.40;;;;;;;12.82;100.00;97631.94;6088416;19;19999;-75
2023/10/14 07:16:08;;;;;;;0.93;0.50;;;;;;;12.85;100.00;97634.69;6073533;19;20546;-75
2023/10/14 07:18:08;;;;;;;0.68;0.50;;;;;;;12.84;100.00;97637.88;6085084;19;20010;-74
2023/10/14 07:20:12;;;;;;;0.63;0.40;;;;;;;12.88;100.00;97650.50;6109360;19;20551;-74
2023/10/14 07:22:15;;;;;;;0.30;0.30;;;;;;;12.81;100.00;97647.81;6103883;19;20033;-75
2023/10/14 07:24:16;;;;;;;0.38;0.38;;;;;;;12.80;100.00;97664.88;6109274;19;20014;-75
2023/10/14 07:26:17;;;;;;;0.35;0.35;;;;;;;12.85;100.00;97665.22;6109912;19;20007;-74
2023/10/14 07:28:18;;;;;;;0.47;0.40;;;;;;;12.81;100.00;97674.78;6109462;19;20014;-74
2023/10/14 07:30:19;;;;;;;0.30;0.30;;;;;;;12.77;100.00;97685.13;6108949;19;20006;-74
2023/10/14 07:32:20;;;;;;;1.60;0.50;;;;;;;12.76;100.00;97689.91;6108924;19;20010;-74
2023/10/14 07:34:20;;;;;;;0.32;0.32;;;;;;;12.65;100.00;97698.31;6109333;19;20023;-75
2023/10/14 07:36:20;;;;;;;0.63;0.30;;;;;;;12.61;100.00;97713.44;6106829;19;20352;-74
2023/10/14 07:38:21;;;;;;;0.43;0.30;;;;;;;12.68;100.00;97724.47;6109275;19;20455;-74
2023/10/14 07:40:24;;;;;;;0.40;0.40;;;;;;;12.62;100.00;97721.34;6107583;19;20043;-74
2023/10/14 07:42:24;;;;;;;0.40;0.40;;;;;;;12.61;100.00;97730.09;6105108;19;20019;-74
2023/10/14 07:44:24;;;;;;;0.43;0.40;;;;;;;12.55;100.00;97745.59;6108726;19;20006;-74
2023/10/14 07:46:25;;;;;;;0.65;0.50;;;;;;;12.59;100.00;97752.69;6109084;19;20074;-74
2023/10/14 07:48:25;;;;;;;0.35;0.35;;;;;;;12.45;100.00;97765.88;6097686;19;20490;-74
2023/10/14 07:50:31;;;;;;;1.30;0.70;;;;;;;12.35;100.00;97762.78;6106886;19;20003;-74
2023/10/14 07:52:32;;;;;;;4.95;2.28;;;;;;;12.40;100.00;97769.09;6102156;19;20028;-74
2023/10/14 07:54:36;;;;;;;2.30;0.70;;;;;;;12.46;100.00;97764.69;6104715;19;20342;-74
2023/10/14 07:56:36;;;;;;;1.27;0.70;;;;;;;12.24;100.00;97777.91;6103435;19;20049;-74
2023/10/14 07:58:38;;;;;;;2.00;0.70;;;;;;;12.27;100.00;97789.00;6106745;19;20010;-74
2023/10/14 08:00:51;;;;;;;1.58;0.70;;;;;;;12.31;100.00;97788.97;6103124;19;20009;-74
2023/10/14 08:02:51;;;;;;;2.10;0.90;;;;;;;12.43;100.00;97788.50;6104962;19;20019;-74
2023/10/14 08:04:53;;;;;;;3.50;1.90;;;;;;;12.55;100.00;97806.63;6106483;19;20458;-74
2023/10/14 08:06:53;;;;;;;6.33;1.40;;;;;;;12.37;100.00;97804.78;6107166;19;20544;-74
2023/10/14 08:08:54;;;;;;;3.03;1.27;;;;;;;12.35;100.00;97801.63;6105418;19;20018;-74
2023/10/14 08:10:57;;;;;;;3.95;0.90;;;;;;;12.27;100.00;97804.84;6104705;19;20007;-74
2023/10/14 08:13:01;;;;;;;2.58;1.17;;;;;;;12.25;100.00;97807.25;6104403;19;20296;-73
2023/10/14 08:15:02;;;;;;;4.35;0.90;;;;;;;12.10;100.00;97817.63;6106508;19;20010;-74
2023/10/14 08:17:10;;;;;;;3.33;1.00;;;;;;;12.14;100.00;97817.59;6106645;19;20010;-74
2023/10/14 08:19:11;;;;;;;4.05;1.33;;;;;;;12.21;100.00;97814.78;6106257;19;20030;-73
2023/10/14 08:21:11;;;;;;;3.90;1.10;;;;;;;12.14;100.00;97823.13;6105176;19;20026;-73
2023/10/14 08:23:12;;;;;;;5.60;1.70;;;;;;;12.25;100.00;97823.88;6103151;19;20023;-74
2023/10/14 08:25:13;;;;;;;4.00;1.10;;;;;;;12.16;100.00;97829.06;6107625;19;20010;-74
2023/10/14 08:27:13;;;;;;;3.70;1.50;;;;;;;12.30;100.00;97837.31;6106557;19;20532;-73
2023/10/14 08:29:14;;;;;;;5.28;1.20;;;;;;;12.23;100.00;97849.22;6106450;19;20023;-73
2023/10/14 08:31:16;;;;;;;9.63;1.80;;;;;;;12.28;100.00;97850.81;6104489;19;20007;-73
2023/10/14 08:33:21;;;;;;;3.88;1.80;;;;;;;12.27;100.00;97849.22;6107089;19;20007;-74
2023/10/14 08:35:27;;;;;;;2.05;1.38;;;;;;;12.33;100.00;97842.06;6107039;19;20003;-73
2023/10/14 08:37:28;;;;;;;4.35;1.40;;;;;;;12.51;100.00;97844.72;6107380;19;20012;-73
2023/10/14 08:39:31;;;;;;;5.38;1.90;;;;;;;12.70;100.00;97849.75;6107794;19;19999;-73
2023/10/14 08:41:34;;;;;;;3.30;1.20;;;;;;;12.74;100.00;97844.94;6107394;19;20002;-74
2023/10/14 08:43:38;;;;;;;3.03;1.48;;;;;;;12.76;100.00;97850.91;6104421;19;20775;-73
2023/10/14 08:45:41;;;;;;;3.30;1.50;;;;;;;12.85;100.00;97844.88;6104936;19;19999;-74
2023/10/14 08:47:45;;;;;;;5.50;1.25;;;;;;;12.82;100.00;97854.78;6106606;19;20110;-74
2023/10/14 08:49:46;;;;;;;3.92;1.30;;;;;;;12.92;100.00;97859.50;6100018;19;20050;-74
2023/10/14 08:51:47;;;;;;;1.83;1.25;;;;;;;13.14;100.00;97853.75;6095276;19;20007;-73
2023/10/14 08:53:53;;;;;;;4.45;1.50;;;;;;;13.35;100.00;97859.16;6095988;19;20007;-73
2023/10/14 08:55:54;;;;;;;8.70;1.42;;;;;;;13.38;100.00;97861.09;6097738;19;20010;-74
2023/10/14 08:58:01;;;;;;;3.75;1.10;;;;;;;13.39;100.00;97865.47;6097340;19;20026;-73
2023/10/14 09:00:05;;;;;;;2.55;1.00;;;;;;;13.36;100.00;97869.06;6097642;19;19999;-74
2023/10/14 09:02:12;;;;;;;3.60;1.27;;;;;;;13.35;100.00;97867.50;6096891;19;20018;-75
2023/10/14 09:04:15;;;;;;;4.32;1.20;;;;;;;13.24;100.00;97872.38;6098972;19;20274;-73
2023/10/14 09:06:17;;;;;;;3.75;1.20;;;;;;;13.18;100.00;97882.31;6098130;19;20021;-73
2023/10/14 09:08:19;;;;;;;5.88;1.23;;;;;;;12.96;100.00;97892.78;6099084;19;19999;-72
2023/10/14 09:10:20;;;;;;;7.00;1.40;;;;;;;12.81;100.00;97886.53;6099189;19;20482;-72
2023/10/14 09:12:21;;;;;;;5.07;1.30;;;;;;;12.96;100.00;97892.78;6096233;19;20605;-73
2023/10/14 09:14:21;;;;;;;6.28;1.33;;;;;;;13.07;100.00;97890.69;6098320;19;20021;-73
2023/10/14 09:16:26;;;;;;;2.33;1.45;;;;;;;13.05;100.00;97897.88;6099076;19;20347;-73
2023/10/14 09:18:30;;;;;;;2.10;1.15;;;;;;;12.91;100.00;97905.13;6097928;19;20022;-73
2023/10/14 09:20:38;;;;;;;2.65;1.30;;;;;;;13.03;100.00;97900.28;6099433;19;20010;-73
2023/10/14 09:22:39;;;;;;;6.03;1.67;;;;;;;13.05;100.00;97908.97;6096074;19;20584;-73
2023/10/14 09:24:42;;;;;;;5.72;1.55;;;;;;;13.16;100.00;97909.72;6098232;19;20014;-73
2023/10/14 09:26:44;;;;;;;4.70;1.52;;;;;;;13.30;100.00;97908.81;6097631;19;20017;-73
2023/10/14 09:28:45;;;;;;;4.40;1.33;;;;;;;13.42;100.00;97911.88;6097783;19;20035;-73
2023/10/14 09:30:50;;;;;;;7.85;1.50;;;;;;;13.50;100.00;97918.19;6098497;19;20011;-72
2023/10/14 09:32:51;;;;;;;5.28;1.40;;;;;;;13.55;100.00;97914.94;6097190;19;20115;-73
2023/10/14 09:34:52;;;;;;;3.88;1.23;;;;;;;13.45;100.00;97916.63;6098324;19;20365;-73
2023/10/14 09:36:55;;;;;;;4.82;1.50;;;;;;;13.50;100.00;97918.19;6097676;19;20030;-73
2023/10/14 09:38:58;;;;;;;;;;;;;;;13.60;100.00;97917.28;6099052;19;20518;-73
2023/10/14 09:41:03;;;;;;;3.55;1.30;;;;;;;13.71;100.00;97912.41;6096278;19;20574;-73
2023/10/14 09:43:03;;;;;;;4.90;1.50;;;;;;;13.84;100.00;97920.22;6097569;19;20011;-73
2023/10/14 09:45:10;;;;;;;5.13;1.63;;;;;;;13.92;100.00;97914.19;6101253;19;20017;-73
2023/10/14 09:47:13;;;;;;;6.20;1.65;;;;;;;14.03;100.00;97916.84;6104704;19;20308;-73
2023/10/14 09:49:15;;;;;;;3.65;2.33;;;;;;;13.99;100.00;97910.53;6106319;19;20015;-73
2023/10/14 09:51:16;;;;;;;5.13;1.98;;;;;;;14.10;100.00;97915.97;6112217;19;20045;-73
2023/10/14 09:53:18;;;;;;;4.18;1.63;;;;;;;13.91;100.00;97937.63;6110608;19;20010;-73
2023/10/14 09:55:20;;;;;;;5.20;2.40;;;;;;;13.66;100.00;97948.22;6111148;19;20007;-73
2023/10/14 09:57:21;;;;;;;5.00;1.30;;;;;;;13.17;100.00;97944.63;6110919;19;20046;-73